sensor_id;sensor_type;location;lat;lon;timestamp;temperature;humidity
16158;DHT22;8184;60.256;18.694;2023-12-29T00:00:33;-0.20;99.90
16158;DHT22;8184;60.256;18.694;2023-12-29T00:03:01;-0.20;99.90
16158;DHT22;8184;60.256;18.694;2023-12-29T00:05:30;-0.20;99.90
16158;DHT22;8184;60.256;18.694;2023-12-29T00:07:58;-0.20;99.90
16158;DHT22;8184;60.256;18.694;2023-12-29T00:10:27;-0.20;99.90
16158;DHT22;8184;60.256;18.694;2023-12-29T00:12:55;-0.20;99.90
16158;DHT22;8184;60.256;18.694;2023-12-29T00:15:24;-0.20;99.90
16158;DHT22;8184;60.256;18.694;2023-12-29T00:17:53;-0.20;99.90
16158;DHT22;8184;60.256;18.694;2023-12-29T00:20:22;-0.20;99.90
16158;DHT22;8184;60.256;18.694;2023-12-29T00:23:06;-0.30;99.90
16158;DHT22;8184;60.256;18.694;2023-12-29T00:25:35;-0.20;99.90
16158;DHT22;8184;60.256;18.694;2023-12-29T00:28:04;-0.20;99.90
16158;DHT22;8184;60.256;18.694;2023-12-29T00:30:32;-0.20;99.90
16158;DHT22;8184;60.256;18.694;2023-12-29T00:33:22;-0.30;99.90
16158;DHT22;8184;60.256;18.694;2023-12-29T00:35:52;-0.30;99.90
16158;DHT22;8184;60.256;18.694;2023-12-29T00:38:20;-0.30;99.90
16158;DHT22;8184;60.256;18.694;2023-12-29T00:40:51;-0.30;99.90
16158;DHT22;8184;60.256;18.694;2023-12-29T00:43:20;-0.40;99.90
16158;DHT22;8184;60.256;18.694;2023-12-29T00:45:48;-0.40;99.90
16158;DHT22;8184;60.256;18.694;2023-12-29T00:48:17;-0.40;99.90
16158;DHT22;8184;60.256;18.694;2023-12-29T00:50:47;-0.40;99.90
16158;DHT22;8184;60.256;18.694;2023-12-29T00:53:15;-0.40;99.90
16158;DHT22;8184;60.256;18.694;2023-12-29T00:55:43;-0.40;99.90
16158;DHT22;8184;60.256;18.694;2023-12-29T00:58:12;-0.50;99.90
16158;DHT22;8184;60.256;18.694;2023-12-29T01:00:40;-0.50;99.90
16158;DHT22;8184;60.256;18.694;2023-12-29T01:03:08;-0.50;99.90
16158;DHT22;8184;60.256;18.694;2023-12-29T01:05:37;-0.50;99.90
16158;DHT22;8184;60.256;18.694;2023-12-29T01:08:07;-0.50;99.90
16158;DHT22;8184;60.256;18.694;2023-12-29T01:10:35;-0.50;99.90
16158;DHT22;8184;60.256;18.694;2023-12-29T01:13:03;-0.40;99.90
16158;DHT22;8184;60.256;18.694;2023-12-29T01:15:32;-0.50;99.90
16158;DHT22;8184;60.256;18.694;2023-12-29T01:18:00;-0.40;99.90
16158;DHT22;8184;60.256;18.694;2023-12-29T01:20:29;-0.40;99.90
16158;DHT22;8184;60.256;18.694;2023-12-29T01:22:57;-0.50;99.90
16158;DHT22;8184;60.256;18.694;2023-12-29T01:25:27;-0.50;99.90
16158;DHT22;8184;60.256;18.694;2023-12-29T01:27:55;-0.50;99.90
16158;DHT22;8184;60.256;18.694;2023-12-29T01:30:23;-0.50;99.90
16158;DHT22;8184;60.256;18.694;2023-12-29T01:32:52;-0.60;99.90
16158;DHT22;8184;60.256;18.694;2023-12-29T01:35:21;-0.50;99.90
16158;DHT22;8184;60.256;18.694;2023-12-29T01:37:49;-0.60;99.90
16158;DHT22;8184;60.256;18.694;2023-12-29T01:40:17;-0.70;99.90
16158;DHT22;8184;60.256;18.694;2023-12-29T01:42:49;-0.60;99.90
16158;DHT22;8184;60.256;18.694;2023-12-29T01:45:20;-0.60;99.90
16158;DHT22;8184;60.256;18.694;2023-12-29T01:47:50;-0.60;99.90
16158;DHT22;8184;60.256;18.694;2023-12-29T01:50:19;-0.60;99.90
16158;DHT22;8184;60.256;18.694;2023-12-29T01:52:51;-0.60;99.90
16158;DHT22;8184;60.256;18.694;2023-12-29T01:55:20;-0.60;99.90
16158;DHT22;8184;60.256;18.694;2023-12-29T01:57:50;-0.60;99.90
16158;DHT22;8184;60.256;18.694;2023-12-29T02:00:19;-0.60;99.90
16158;DHT22;8184;60.256;18.694;2023-12-29T02:02:47;-0.60;99.90
16158;DHT22;8184;60.256;18.694;2023-12-29T02:05:16;-0.60;99.90
16158;DHT22;8184;60.256;18.694;2023-12-29T02:07:45;-0.60;99.90
16158;DHT22;8184;60.256;18.694;2023-12-29T02:10:13;-0.60;99.90
16158;DHT22;8184;60.256;18.694;2023-12-29T02:12:42;-0.60;99.90
16158;DHT22;8184;60.256;18.694;2023-12-29T02:15:12;-0.60;99.90
16158;DHT22;8184;60.256;18.694;2023-12-29T02:17:41;-0.60;99.90
16158;DHT22;8184;60.256;18.694;2023-12-29T02:20:12;-0.60;99.90
16158;DHT22;8184;60.256;18.694;2023-12-29T02:22:40;-0.60;99.90
16158;DHT22;8184;60.256;18.694;2023-12-29T02:25:10;-0.60;99.90
16158;DHT22;8184;60.256;18.694;2023-12-29T02:27:43;-0.60;99.90
16158;DHT22;8184;60.256;18.694;2023-12-29T02:30:15;-0.60;99.90
16158;DHT22;8184;60.256;18.694;2023-12-29T02:32:46;-0.60;99.90
16158;DHT22;8184;60.256;18.694;2023-12-29T02:35:17;-0.60;99.90
16158;DHT22;8184;60.256;18.694;2023-12-29T02:37:46;-0.60;99.90
16158;DHT22;8184;60.256;18.694;2023-12-29T02:40:19;-0.60;99.90
16158;DHT22;8184;60.256;18.694;2023-12-29T02:42:48;-0.60;99.90
16158;DHT22;8184;60.256;18.694;2023-12-29T02:45:17;-0.60;99.90
16158;DHT22;8184;60.256;18.694;2023-12-29T02:47:45;-0.60;99.90
16158;DHT22;8184;60.256;18.694;2023-12-29T02:50:14;-0.60;99.90
16158;DHT22;8184;60.256;18.694;2023-12-29T02:52:42;-0.60;99.90
16158;DHT22;8184;60.256;18.694;2023-12-29T02:55:12;-0.60;99.90
16158;DHT22;8184;60.256;18.694;2023-12-29T02:57:42;-0.60;99.90
16158;DHT22;8184;60.256;18.694;2023-12-29T03:00:11;-0.60;99.90
16158;DHT22;8184;60.256;18.694;2023-12-29T03:02:40;-0.70;99.90
16158;DHT22;8184;60.256;18.694;2023-12-29T03:05:11;-0.60;99.90
16158;DHT22;8184;60.256;18.694;2023-12-29T03:07:40;-0.70;99.90
16158;DHT22;8184;60.256;18.694;2023-12-29T03:10:09;-0.70;99.90
16158;DHT22;8184;60.256;18.694;2023-12-29T03:12:37;-0.70;99.90
16158;DHT22;8184;60.256;18.694;2023-12-29T03:15:07;-0.60;99.90
16158;DHT22;8184;60.256;18.694;2023-12-29T03:17:36;-0.60;99.90
16158;DHT22;8184;60.256;18.694;2023-12-29T03:20:05;-0.60;99.90
16158;DHT22;8184;60.256;18.694;2023-12-29T03:22:34;-0.60;99.90
16158;DHT22;8184;60.256;18.694;2023-12-29T03:25:03;-0.60;99.90
16158;DHT22;8184;60.256;18.694;2023-12-29T03:27:32;-0.60;99.90
16158;DHT22;8184;60.256;18.694;2023-12-29T03:30:00;-0.60;99.90
16158;DHT22;8184;60.256;18.694;2023-12-29T03:32:30;-0.60;99.90
16158;DHT22;8184;60.256;18.694;2023-12-29T03:34:58;-0.60;99.90
16158;DHT22;8184;60.256;18.694;2023-12-29T03:37:28;-0.60;99.90
16158;DHT22;8184;60.256;18.694;2023-12-29T03:39:56;-0.60;99.90
16158;DHT22;8184;60.256;18.694;2023-12-29T03:42:24;-0.60;99.90
16158;DHT22;8184;60.256;18.694;2023-12-29T03:44:52;-0.60;99.90
16158;DHT22;8184;60.256;18.694;2023-12-29T03:47:21;-0.60;99.90
16158;DHT22;8184;60.256;18.694;2023-12-29T03:49:50;-0.60;99.90
16158;DHT22;8184;60.256;18.694;2023-12-29T03:52:22;-0.60;99.90
16158;DHT22;8184;60.256;18.694;2023-12-29T03:54:50;-0.50;99.90
16158;DHT22;8184;60.256;18.694;2023-12-29T03:57:18;-0.50;99.90
16158;DHT22;8184;60.256;18.694;2023-12-29T03:59:46;-0.50;99.90
16158;DHT22;8184;60.256;18.694;2023-12-29T04:02:15;-0.50;99.90
16158;DHT22;8184;60.256;18.694;2023-12-29T04:04:44;-0.60;99.90
16158;DHT22;8184;60.256;18.694;2023-12-29T04:07:18;-0.60;99.90
16158;DHT22;8184;60.256;18.694;2023-12-29T04:09:46;-0.50;99.90
16158;DHT22;8184;60.256;18.694;2023-12-29T04:12:14;-0.50;99.90
16158;DHT22;8184;60.256;18.694;2023-12-29T04:14:42;-0.60;99.90
16158;DHT22;8184;60.256;18.694;2023-12-29T04:17:11;-0.50;99.90
16158;DHT22;8184;60.256;18.694;2023-12-29T04:19:41;-0.50;99.90
16158;DHT22;8184;60.256;18.694;2023-12-29T04:22:09;-0.50;99.90
16158;DHT22;8184;60.256;18.694;2023-12-29T04:24:39;-0.60;99.90
16158;DHT22;8184;60.256;18.694;2023-12-29T04:27:07;-0.60;99.90
16158;DHT22;8184;60.256;18.694;2023-12-29T04:29:36;-0.60;99.90
16158;DHT22;8184;60.256;18.694;2023-12-29T04:32:09;-0.60;99.90
16158;DHT22;8184;60.256;18.694;2023-12-29T04:34:37;-0.60;99.90
16158;DHT22;8184;60.256;18.694;2023-12-29T04:37:06;-0.60;99.90
16158;DHT22;8184;60.256;18.694;2023-12-29T04:39:34;-0.60;99.90
16158;DHT22;8184;60.256;18.694;2023-12-29T04:42:04;-0.60;99.90
16158;DHT22;8184;60.256;18.694;2023-12-29T04:44:34;-0.50;99.90
16158;DHT22;8184;60.256;18.694;2023-12-29T04:47:02;-0.50;99.90
16158;DHT22;8184;60.256;18.694;2023-12-29T04:49:31;-0.60;99.90
16158;DHT22;8184;60.256;18.694;2023-12-29T04:51:59;-0.60;99.90
16158;DHT22;8184;60.256;18.694;2023-12-29T04:54:27;-0.50;99.90
16158;DHT22;8184;60.256;18.694;2023-12-29T04:56:56;-0.50;99.90
16158;DHT22;8184;60.256;18.694;2023-12-29T04:59:25;-0.60;99.90
16158;DHT22;8184;60.256;18.694;2023-12-29T05:01:54;-0.60;99.90
16158;DHT22;8184;60.256;18.694;2023-12-29T05:04:22;-0.60;99.90
16158;DHT22;8184;60.256;18.694;2023-12-29T05:06:50;-0.60;99.90
16158;DHT22;8184;60.256;18.694;2023-12-29T05:09:19;-0.60;99.90
16158;DHT22;8184;60.256;18.694;2023-12-29T05:11:47;-0.60;99.90
16158;DHT22;8184;60.256;18.694;2023-12-29T05:14:16;-0.60;99.90
16158;DHT22;8184;60.256;18.694;2023-12-29T05:16:45;-0.60;99.90
16158;DHT22;8184;60.256;18.694;2023-12-29T05:19:13;-0.60;99.90
16158;DHT22;8184;60.256;18.694;2023-12-29T05:21:42;-0.60;99.90
16158;DHT22;8184;60.256;18.694;2023-12-29T05:24:11;-0.60;99.90
16158;DHT22;8184;60.256;18.694;2023-12-29T05:26:39;-0.60;99.90
16158;DHT22;8184;60.256;18.694;2023-12-29T05:29:07;-0.60;99.90
16158;DHT22;8184;60.256;18.694;2023-12-29T05:31:35;-0.60;99.90
16158;DHT22;8184;60.256;18.694;2023-12-29T05:34:05;-0.60;99.90
16158;DHT22;8184;60.256;18.694;2023-12-29T05:36:34;-0.60;99.90
16158;DHT22;8184;60.256;18.694;2023-12-29T05:39:03;-0.60;99.90
16158;DHT22;8184;60.256;18.694;2023-12-29T05:41:31;-0.60;99.90
16158;DHT22;8184;60.256;18.694;2023-12-29T05:43:59;-0.60;99.90
16158;DHT22;8184;60.256;18.694;2023-12-29T05:46:28;-0.60;99.90
16158;DHT22;8184;60.256;18.694;2023-12-29T05:49:01;-0.60;99.90
16158;DHT22;8184;60.256;18.694;2023-12-29T05:51:31;-0.60;99.90
16158;DHT22;8184;60.256;18.694;2023-12-29T05:54:00;-0.60;99.90
16158;DHT22;8184;60.256;18.694;2023-12-29T05:56:29;-0.60;99.90
16158;DHT22;8184;60.256;18.694;2023-12-29T05:58:57;-0.60;99.90
16158;DHT22;8184;60.256;18.694;2023-12-29T06:01:25;-0.60;99.90
16158;DHT22;8184;60.256;18.694;2023-12-29T06:03:54;-0.70;99.90
16158;DHT22;8184;60.256;18.694;2023-12-29T06:06:22;-0.60;99.90
16158;DHT22;8184;60.256;18.694;2023-12-29T06:08:52;-0.60;99.90
16158;DHT22;8184;60.256;18.694;2023-12-29T06:11:20;-0.60;99.90
16158;DHT22;8184;60.256;18.694;2023-12-29T06:13:49;-0.60;99.90
16158;DHT22;8184;60.256;18.694;2023-12-29T06:16:17;-0.60;99.90
16158;DHT22;8184;60.256;18.694;2023-12-29T06:18:46;-0.60;99.90
16158;DHT22;8184;60.256;18.694;2023-12-29T06:21:15;-0.60;99.90
16158;DHT22;8184;60.256;18.694;2023-12-29T06:23:43;-0.60;99.90
16158;DHT22;8184;60.256;18.694;2023-12-29T06:26:16;-0.60;99.90
16158;DHT22;8184;60.256;18.694;2023-12-29T06:28:45;-0.60;99.90
16158;DHT22;8184;60.256;18.694;2023-12-29T06:31:13;-0.60;99.90
16158;DHT22;8184;60.256;18.694;2023-12-29T06:33:42;-0.60;99.90
16158;DHT22;8184;60.256;18.694;2023-12-29T06:36:12;-0.50;99.90
16158;DHT22;8184;60.256;18.694;2023-12-29T06:38:41;-0.50;99.90
16158;DHT22;8184;60.256;18.694;2023-12-29T06:41:12;-0.50;99.90
16158;DHT22;8184;60.256;18.694;2023-12-29T06:43:42;-0.50;99.90
16158;DHT22;8184;60.256;18.694;2023-12-29T06:46:11;-0.50;99.90
16158;DHT22;8184;60.256;18.694;2023-12-29T06:48:41;-0.50;99.90
16158;DHT22;8184;60.256;18.694;2023-12-29T06:51:19;-0.40;99.90
16158;DHT22;8184;60.256;18.694;2023-12-29T06:53:49;-0.40;99.90
16158;DHT22;8184;60.256;18.694;2023-12-29T06:56:18;-0.40;99.90
16158;DHT22;8184;60.256;18.694;2023-12-29T06:58:47;-0.40;99.90
16158;DHT22;8184;60.256;18.694;2023-12-29T07:01:16;-0.40;99.90
16158;DHT22;8184;60.256;18.694;2023-12-29T07:03:47;-0.40;99.90
16158;DHT22;8184;60.256;18.694;2023-12-29T07:06:15;-0.40;99.90
16158;DHT22;8184;60.256;18.694;2023-12-29T07:08:44;-0.40;99.90
16158;DHT22;8184;60.256;18.694;2023-12-29T07:11:13;-0.30;99.90
16158;DHT22;8184;60.256;18.694;2023-12-29T07:13:42;-0.30;99.90
16158;DHT22;8184;60.256;18.694;2023-12-29T07:16:11;-0.30;99.90
16158;DHT22;8184;60.256;18.694;2023-12-29T07:18:43;-0.30;99.90
16158;DHT22;8184;60.256;18.694;2023-12-29T07:21:11;-0.30;99.90
16158;DHT22;8184;60.256;18.694;2023-12-29T07:23:44;-0.20;99.90
16158;DHT22;8184;60.256;18.694;2023-12-29T07:26:13;-0.20;99.90
16158;DHT22;8184;60.256;18.694;2023-12-29T07:28:41;-0.20;99.90
16158;DHT22;8184;60.256;18.694;2023-12-29T07:31:10;-0.20;99.90
16158;DHT22;8184;60.256;18.694;2023-12-29T07:33:40;-0.20;99.90
16158;DHT22;8184;60.256;18.694;2023-12-29T07:36:08;-0.20;99.90
16158;DHT22;8184;60.256;18.694;2023-12-29T07:38:37;-0.10;99.90
16158;DHT22;8184;60.256;18.694;2023-12-29T07:41:05;-0.10;99.90
16158;DHT22;8184;60.256;18.694;2023-12-29T07:43:34;-0.10;99.90
16158;DHT22;8184;60.256;18.694;2023-12-29T07:46:02;-0.10;99.90
16158;DHT22;8184;60.256;18.694;2023-12-29T07:48:31;-0.10;99.90
16158;DHT22;8184;60.256;18.694;2023-12-29T07:51:04;-0.10;99.90
16158;DHT22;8184;60.256;18.694;2023-12-29T07:53:32;-0.10;99.90
16158;DHT22;8184;60.256;18.694;2023-12-29T07:56:02;-0.10;99.90
16158;DHT22;8184;60.256;18.694;2023-12-29T07:58:31;0.00;99.90
16158;DHT22;8184;60.256;18.694;2023-12-29T08:00:59;0.00;99.90
16158;DHT22;8184;60.256;18.694;2023-12-29T08:03:27;-0.10;99.90
16158;DHT22;8184;60.256;18.694;2023-12-29T08:05:56;0.00;99.90
16158;DHT22;8184;60.256;18.694;2023-12-29T08:08:26;0.00;99.90
16158;DHT22;8184;60.256;18.694;2023-12-29T08:10:54;0.00;99.90
16158;DHT22;8184;60.256;18.694;2023-12-29T08:13:22;0.00;99.90
16158;DHT22;8184;60.256;18.694;2023-12-29T08:15:50;0.00;99.90
16158;DHT22;8184;60.256;18.694;2023-12-29T08:18:19;0.00;99.90
16158;DHT22;8184;60.256;18.694;2023-12-29T08:20:47;0.00;99.90
16158;DHT22;8184;60.256;18.694;2023-12-29T08:23:15;0.00;99.90
16158;DHT22;8184;60.256;18.694;2023-12-29T08:25:45;0.00;99.90
16158;DHT22;8184;60.256;18.694;2023-12-29T08:28:14;0.00;99.90
16158;DHT22;8184;60.256;18.694;2023-12-29T08:30:43;0.00;99.90
16158;DHT22;8184;60.256;18.694;2023-12-29T08:33:12;0.00;99.90
16158;DHT22;8184;60.256;18.694;2023-12-29T08:35:40;0.10;99.90
16158;DHT22;8184;60.256;18.694;2023-12-29T08:38:09;0.00;99.90
16158;DHT22;8184;60.256;18.694;2023-12-29T08:40:38;0.00;99.90
16158;DHT22;8184;60.256;18.694;2023-12-29T08:43:07;0.00;99.90
16158;DHT22;8184;60.256;18.694;2023-12-29T08:45:35;0.00;99.90
16158;DHT22;8184;60.256;18.694;2023-12-29T08:48:05;0.00;99.90
16158;DHT22;8184;60.256;18.694;2023-12-29T08:50:34;0.10;99.90
16158;DHT22;8184;60.256;18.694;2023-12-29T08:53:02;0.10;99.90
16158;DHT22;8184;60.256;18.694;2023-12-29T08:55:33;0.10;99.90
16158;DHT22;8184;60.256;18.694;2023-12-29T08:58:01;0.10;99.90
16158;DHT22;8184;60.256;18.694;2023-12-29T09:00:31;0.10;99.90
16158;DHT22;8184;60.256;18.694;2023-12-29T09:03:01;0.10;99.90
16158;DHT22;8184;60.256;18.694;2023-12-29T09:05:29;0.10;99.90
16158;DHT22;8184;60.256;18.694;2023-12-29T09:07:58;0.10;99.90
16158;DHT22;8184;60.256;18.694;2023-12-29T09:10:27;0.10;99.90
16158;DHT22;8184;60.256;18.694;2023-12-29T09:12:55;0.10;99.90
16158;DHT22;8184;60.256;18.694;2023-12-29T09:15:23;0.10;99.90
16158;DHT22;8184;60.256;18.694;2023-12-29T09:17:53;0.10;99.90
16158;DHT22;8184;60.256;18.694;2023-12-29T09:20:21;0.10;99.90
16158;DHT22;8184;60.256;18.694;2023-12-29T09:22:50;0.10;99.90
16158;DHT22;8184;60.256;18.694;2023-12-29T09:25:19;0.10;99.90
16158;DHT22;8184;60.256;18.694;2023-12-29T09:27:47;0.10;99.90
16158;DHT22;8184;60.256;18.694;2023-12-29T09:30:16;0.10;99.90
16158;DHT22;8184;60.256;18.694;2023-12-29T09:32:44;0.10;99.90
16158;DHT22;8184;60.256;18.694;2023-12-29T09:35:14;0.10;99.90
16158;DHT22;8184;60.256;18.694;2023-12-29T09:37:44;0.10;99.90
16158;DHT22;8184;60.256;18.694;2023-12-29T09:40:13;0.10;99.90
16158;DHT22;8184;60.256;18.694;2023-12-29T09:42:42;0.20;99.90
16158;DHT22;8184;60.256;18.694;2023-12-29T09:45:11;0.10;99.90
16158;DHT22;8184;60.256;18.694;2023-12-29T09:47:42;0.10;99.90
16158;DHT22;8184;60.256;18.694;2023-12-29T09:50:12;0.10;99.90
16158;DHT22;8184;60.256;18.694;2023-12-29T09:52:42;0.10;99.90
16158;DHT22;8184;60.256;18.694;2023-12-29T09:55:11;0.20;99.90
16158;DHT22;8184;60.256;18.694;2023-12-29T09:57:39;0.20;99.90
16158;DHT22;8184;60.256;18.694;2023-12-29T10:00:10;0.20;99.90
16158;DHT22;8184;60.256;18.694;2023-12-29T10:02:39;0.20;99.90
16158;DHT22;8184;60.256;18.694;2023-12-29T10:05:08;0.20;99.90
16158;DHT22;8184;60.256;18.694;2023-12-29T10:07:36;0.20;99.90
16158;DHT22;8184;60.256;18.694;2023-12-29T10:10:07;0.20;99.90
16158;DHT22;8184;60.256;18.694;2023-12-29T10:12:38;0.20;99.90
16158;DHT22;8184;60.256;18.694;2023-12-29T10:15:10;0.20;99.90
16158;DHT22;8184;60.256;18.694;2023-12-29T10:17:43;0.20;99.90
16158;DHT22;8184;60.256;18.694;2023-12-29T10:20:16;0.20;99.90
16158;DHT22;8184;60.256;18.694;2023-12-29T10:22:51;0.20;99.90
16158;DHT22;8184;60.256;18.694;2023-12-29T10:25:21;0.20;99.90
16158;DHT22;8184;60.256;18.694;2023-12-29T10:27:51;0.20;99.90
16158;DHT22;8184;60.256;18.694;2023-12-29T10:30:19;0.30;99.90
16158;DHT22;8184;60.256;18.694;2023-12-29T10:33:00;0.20;99.90
16158;DHT22;8184;60.256;18.694;2023-12-29T10:35:31;0.30;99.90
16158;DHT22;8184;60.256;18.694;2023-12-29T10:38:08;0.30;99.90
16158;DHT22;8184;60.256;18.694;2023-12-29T10:40:38;0.30;99.90
16158;DHT22;8184;60.256;18.694;2023-12-29T10:43:06;0.30;99.90
16158;DHT22;8184;60.256;18.694;2023-12-29T10:45:36;0.30;99.90
16158;DHT22;8184;60.256;18.694;2023-12-29T10:48:05;0.30;99.90
16158;DHT22;8184;60.256;18.694;2023-12-29T10:50:42;0.30;99.90
16158;DHT22;8184;60.256;18.694;2023-12-29T10:53:10;0.30;99.90
16158;DHT22;8184;60.256;18.694;2023-12-29T10:55:40;0.30;99.90
16158;DHT22;8184;60.256;18.694;2023-12-29T10:58:09;0.30;99.90
16158;DHT22;8184;60.256;18.694;2023-12-29T11:00:37;0.30;99.90
16158;DHT22;8184;60.256;18.694;2023-12-29T11:03:05;0.30;99.90
16158;DHT22;8184;60.256;18.694;2023-12-29T11:05:34;0.30;99.90
16158;DHT22;8184;60.256;18.694;2023-12-29T11:08:03;0.30;99.90
16158;DHT22;8184;60.256;18.694;2023-12-29T11:10:44;0.30;99.90
16158;DHT22;8184;60.256;18.694;2023-12-29T11:13:12;0.30;99.90
16158;DHT22;8184;60.256;18.694;2023-12-29T11:15:46;0.40;99.90
16158;DHT22;8184;60.256;18.694;2023-12-29T11:18:15;0.30;99.90
16158;DHT22;8184;60.256;18.694;2023-12-29T11:20:44;0.30;99.90
16158;DHT22;8184;60.256;18.694;2023-12-29T11:23:13;0.30;99.90
16158;DHT22;8184;60.256;18.694;2023-12-29T11:25:45;0.30;99.90
16158;DHT22;8184;60.256;18.694;2023-12-29T11:28:13;0.30;99.90
16158;DHT22;8184;60.256;18.694;2023-12-29T11:30:42;0.30;99.90
16158;DHT22;8184;60.256;18.694;2023-12-29T11:33:14;0.30;99.90
16158;DHT22;8184;60.256;18.694;2023-12-29T11:35:44;0.30;99.90
16158;DHT22;8184;60.256;18.694;2023-12-29T11:38:20;0.30;99.90
16158;DHT22;8184;60.256;18.694;2023-12-29T11:40:57;0.30;99.90
16158;DHT22;8184;60.256;18.694;2023-12-29T11:43:27;0.30;99.90
16158;DHT22;8184;60.256;18.694;2023-12-29T11:45:56;0.30;99.90
16158;DHT22;8184;60.256;18.694;2023-12-29T11:51:30;0.30;99.90
16158;DHT22;8184;60.256;18.694;2023-12-29T11:53:58;0.30;99.90
16158;DHT22;8184;60.256;18.694;2023-12-29T11:56:32;0.30;99.90
16158;DHT22;8184;60.256;18.694;2023-12-29T12:01:46;0.30;99.90
16158;DHT22;8184;60.256;18.694;2023-12-29T12:06:58;0.30;99.90
16158;DHT22;8184;60.256;18.694;2023-12-29T12:09:26;0.30;99.90
16158;DHT22;8184;60.256;18.694;2023-12-29T12:11:56;0.30;99.90
16158;DHT22;8184;60.256;18.694;2023-12-29T12:17:11;0.30;99.90
16158;DHT22;8184;60.256;18.694;2023-12-29T12:19:39;0.30;99.90
16158;DHT22;8184;60.256;18.694;2023-12-29T12:22:07;0.30;99.90
16158;DHT22;8184;60.256;18.694;2023-12-29T12:24:38;0.30;99.90
16158;DHT22;8184;60.256;18.694;2023-12-29T12:27:10;0.30;99.90
16158;DHT22;8184;60.256;18.694;2023-12-29T12:29:39;0.30;99.90
16158;DHT22;8184;60.256;18.694;2023-12-29T12:32:07;0.30;99.90
16158;DHT22;8184;60.256;18.694;2023-12-29T12:34:39;0.20;99.90
16158;DHT22;8184;60.256;18.694;2023-12-29T12:37:07;0.30;99.90
16158;DHT22;8184;60.256;18.694;2023-12-29T12:39:39;0.20;99.90
16158;DHT22;8184;60.256;18.694;2023-12-29T12:42:08;0.20;99.90
16158;DHT22;8184;60.256;18.694;2023-12-29T12:44:40;0.20;99.90
16158;DHT22;8184;60.256;18.694;2023-12-29T12:47:09;0.20;99.90
16158;DHT22;8184;60.256;18.694;2023-12-29T12:49:40;0.30;99.90
16158;DHT22;8184;60.256;18.694;2023-12-29T12:52:10;0.30;99.90
16158;DHT22;8184;60.256;18.694;2023-12-29T12:54:39;0.30;99.90
16158;DHT22;8184;60.256;18.694;2023-12-29T12:57:07;0.30;99.90
16158;DHT22;8184;60.256;18.694;2023-12-29T12:59:35;0.30;99.90
16158;DHT22;8184;60.256;18.694;2023-12-29T13:02:05;0.30;99.90
16158;DHT22;8184;60.256;18.694;2023-12-29T13:04:38;0.30;99.90
16158;DHT22;8184;60.256;18.694;2023-12-29T13:07:07;0.30;99.90
16158;DHT22;8184;60.256;18.694;2023-12-29T13:09:36;0.30;99.90
16158;DHT22;8184;60.256;18.694;2023-12-29T13:12:11;0.30;99.90
16158;DHT22;8184;60.256;18.694;2023-12-29T13:14:40;0.30;99.90
16158;DHT22;8184;60.256;18.694;2023-12-29T13:17:12;0.20;99.90
16158;DHT22;8184;60.256;18.694;2023-12-29T13:19:42;0.30;99.90
16158;DHT22;8184;60.256;18.694;2023-12-29T13:22:11;0.20;99.90
16158;DHT22;8184;60.256;18.694;2023-12-29T13:24:44;0.30;99.90
16158;DHT22;8184;60.256;18.694;2023-12-29T13:27:13;0.20;99.90
16158;DHT22;8184;60.256;18.694;2023-12-29T13:29:42;0.20;99.90
16158;DHT22;8184;60.256;18.694;2023-12-29T13:32:14;0.20;99.90
16158;DHT22;8184;60.256;18.694;2023-12-29T13:34:48;0.20;99.90
16158;DHT22;8184;60.256;18.694;2023-12-29T13:37:18;0.20;99.90
16158;DHT22;8184;60.256;18.694;2023-12-29T13:39:50;0.20;99.90
16158;DHT22;8184;60.256;18.694;2023-12-29T13:42:20;0.20;99.90
16158;DHT22;8184;60.256;18.694;2023-12-29T13:44:50;0.20;99.90
16158;DHT22;8184;60.256;18.694;2023-12-29T13:47:21;0.20;99.90
16158;DHT22;8184;60.256;18.694;2023-12-29T13:49:49;0.10;99.90
16158;DHT22;8184;60.256;18.694;2023-12-29T13:52:18;0.10;99.90
16158;DHT22;8184;60.256;18.694;2023-12-29T13:54:47;0.10;99.90
16158;DHT22;8184;60.256;18.694;2023-12-29T13:57:16;0.10;99.90
16158;DHT22;8184;60.256;18.694;2023-12-29T13:59:48;0.10;99.90
16158;DHT22;8184;60.256;18.694;2023-12-29T14:02:22;0.10;99.90
16158;DHT22;8184;60.256;18.694;2023-12-29T14:07:36;0.10;99.90
16158;DHT22;8184;60.256;18.694;2023-12-29T14:10:04;0.10;99.90
16158;DHT22;8184;60.256;18.694;2023-12-29T14:12:33;0.10;99.90
16158;DHT22;8184;60.256;18.694;2023-12-29T14:15:04;0.10;99.90
16158;DHT22;8184;60.256;18.694;2023-12-29T14:17:34;0.10;99.90
16158;DHT22;8184;60.256;18.694;2023-12-29T14:20:05;0.10;99.90
16158;DHT22;8184;60.256;18.694;2023-12-29T14:22:34;0.10;99.90
16158;DHT22;8184;60.256;18.694;2023-12-29T14:25:02;0.10;99.90
16158;DHT22;8184;60.256;18.694;2023-12-29T14:27:31;0.10;99.90
16158;DHT22;8184;60.256;18.694;2023-12-29T14:29:59;0.10;99.90
16158;DHT22;8184;60.256;18.694;2023-12-29T14:32:29;0.10;99.90
16158;DHT22;8184;60.256;18.694;2023-12-29T14:34:59;0.10;99.90
16158;DHT22;8184;60.256;18.694;2023-12-29T14:37:29;0.10;99.90
16158;DHT22;8184;60.256;18.694;2023-12-29T14:39:58;0.10;99.90
16158;DHT22;8184;60.256;18.694;2023-12-29T14:42:26;0.00;99.90
16158;DHT22;8184;60.256;18.694;2023-12-29T14:44:54;0.00;99.90
16158;DHT22;8184;60.256;18.694;2023-12-29T14:47:25;0.10;99.90
16158;DHT22;8184;60.256;18.694;2023-12-29T14:49:54;0.00;99.90
16158;DHT22;8184;60.256;18.694;2023-12-29T14:52:23;0.00;99.90
16158;DHT22;8184;60.256;18.694;2023-12-29T14:54:51;0.00;99.90
16158;DHT22;8184;60.256;18.694;2023-12-29T14:57:20;0.00;99.90
16158;DHT22;8184;60.256;18.694;2023-12-29T14:59:50;0.00;99.90
16158;DHT22;8184;60.256;18.694;2023-12-29T15:02:18;0.00;99.90
16158;DHT22;8184;60.256;18.694;2023-12-29T15:04:50;0.00;99.90
16158;DHT22;8184;60.256;18.694;2023-12-29T15:07:18;0.00;99.90
16158;DHT22;8184;60.256;18.694;2023-12-29T15:09:48;0.00;99.90
16158;DHT22;8184;60.256;18.694;2023-12-29T15:12:17;0.00;99.90
16158;DHT22;8184;60.256;18.694;2023-12-29T15:14:45;0.00;99.90
16158;DHT22;8184;60.256;18.694;2023-12-29T15:17:13;0.00;99.90
16158;DHT22;8184;60.256;18.694;2023-12-29T15:19:41;0.00;99.90
16158;DHT22;8184;60.256;18.694;2023-12-29T15:22:10;0.00;99.90
16158;DHT22;8184;60.256;18.694;2023-12-29T15:24:38;0.00;99.90
16158;DHT22;8184;60.256;18.694;2023-12-29T15:27:08;-0.10;99.90
16158;DHT22;8184;60.256;18.694;2023-12-29T15:29:36;-0.10;99.90
16158;DHT22;8184;60.256;18.694;2023-12-29T15:32:05;-0.10;99.90
16158;DHT22;8184;60.256;18.694;2023-12-29T15:34:35;-0.10;99.90
16158;DHT22;8184;60.256;18.694;2023-12-29T15:37:03;-0.10;99.90
16158;DHT22;8184;60.256;18.694;2023-12-29T15:39:33;-0.10;99.90
16158;DHT22;8184;60.256;18.694;2023-12-29T15:42:01;-0.10;99.90
16158;DHT22;8184;60.256;18.694;2023-12-29T15:44:30;-0.10;99.90
16158;DHT22;8184;60.256;18.694;2023-12-29T15:47:00;-0.10;99.90
16158;DHT22;8184;60.256;18.694;2023-12-29T15:49:28;-0.10;99.90
16158;DHT22;8184;60.256;18.694;2023-12-29T15:51:57;-0.10;99.90
16158;DHT22;8184;60.256;18.694;2023-12-29T15:54:26;-0.10;99.90
16158;DHT22;8184;60.256;18.694;2023-12-29T15:56:55;-0.10;99.90
16158;DHT22;8184;60.256;18.694;2023-12-29T15:59:23;-0.10;99.90
16158;DHT22;8184;60.256;18.694;2023-12-29T16:01:53;-0.10;99.90
16158;DHT22;8184;60.256;18.694;2023-12-29T16:04:21;-0.10;99.90